Terminal Aerodrome Forecast
Issued by NWS Charleston, WV

Current Version | Previous Version | Graphics & Text | Print | Product List | Glossary On
Versions: 1 2 3 4 5 6 7 8 9 10 11 12 13 14 15 16 17 18 19
000
FTUS41 KRLX 271032 AAA
TAFBKW
TAF AMD
KBKW 271032Z 2711/2806 00000KT P6SM SCT002
      TEMPO 2711/2712 2SM BR BKN002
     FM271800 03006KT P6SM SCT035
     FM272100 03006KT P6SM SCT045
     FM280100 00000KT P6SM SKC=

USA.gov is the U.S. government's official web portal to all federal, state and local government web resources and services.